Relevés horaires Saint-Yan (France)


Relevés horaires à Saint-Yan - Lundi 05 Avr. 2021
Heure UTC1 Température [°C] Vent [km/h] Hum. [%] Pres.4 [hPa] Visi. [Km] Nébu. [octa] Préc.5 [mm] Cond.
2m. Res. Ros. Dir.2 Vit. Moy. Raf.3
23:00 3.1 0.6 -1.5 N 9.3 -- 13.0 72 1019.2(2.4/3h) 60 8/8 -- --
22:00 3.3 1.3 0.3 N 7.4 -- 20.4 81 1018.9(3.5/3h) 45 8/8 -- --
21:00 3.9 0.4 0.1 N 14.8 -- 27.8 76 1017.9(3.2/3h) 55 8/8 -- --
20:00 7.5 5.1 3.9 NNO 13.0 -- 25.9 78 1016.2(2.6/3h) 60 -- -- --
19:00 10.3 8.3 2.6 NO 14.8 -- 22.2 59 1014.6(1.7/3h) 30 -- -- --
18:00 11.4 9.9 2.7 NO 13.0 -- 24.1 55 1013.8(1.0/3h) 40 8/8 -- --
17:00 13.7 12.3 2.9 NO 16.7 -- 25.9 48 1012.9(-0.3/3h) 13 8/8 -- --
16:00 16.2 15.7 3.6 ONO 13.0 -- 22.2 43 1012.2(-1.8/3h) 20 6/8 -- --
15:00 16.5 16.1 2.1 O 13.0 -- 24.1 38 1012.2(-2.4/3h) 22 -- -- --
14:00 16.5 16.5 3.2 OSO 9.3 -- 18.5 41 1012.9(-2.4/3h) 23 -- -- --
13:00 15.6 15.4 2.0 ONO 9.3 -- 18.5 40 1014.2(-2.0/3h) 24 -- -- --
12:00 15.1 14.8 2.9 ONO 9.3 -- 18.5 44 1014.8(-2.2/3h) 19 -- -- --
11:00 13.6 13 2.5 O 9.3 -- 16.7 47 1015.7(-1.8/3h) 19 -- -- --
10:00 12.5 11.5 2.3 O 11.1 -- 16.7 50 1016.5(-1.2/3h) 19 -- -- --
09:00 10.0 10.0 3.9 SSO 3.7 -- 7.4 66 1017.6(-0.7/3h) 19 -- -- --
08:00 5.5 5.5 1.8 S 3.7 -- 7.4 77 1018.4(-0.4/3h) 35 -- -- --
07:00 2.4 2.4 0.8 S 3.7 -- 5.6 89 1018.8(0.0/3h) 19 -- -- --
06:00 -1.7 -1.7 -2.5 S 3.7 -- 3.7 94 1019.6(-0.3/3h) 18 -- -- --
05:00 -1.8 -1.8 -2.9 SE 1.9 -- 3.7 92 1019.6(-0.5/3h) 18 -- -- --
04:00 -0.6 -0.6 -1.4 S 1.9 -- 7.4 94 1019.2(-0.7/3h) 24 -- -- --
03:00 -0.5 -0.5 -1.3 SSE 1.9 -- 3.7 94 1019.8(-0.6/3h) 17 -- -- --
02:00 0.1 0.1 -0.9 NNO 0.0 -- 3.7 93 1019.9(-0.8/3h) 19 -- -- --
01:00 0.5 0.5 -0.6 SSE 1.9 -- 3.7 92 1019.8(-1.1/3h) 30 -- -- --
00:00 0.5 0.5 -1.3 SSE 3.7 -- 5.6 88 1020.3(-0.6/3h) 35 -- -- --

1 Coordinated Universal Time. Actuellement il est 21:00 locale et 19:00 UTC.

2 Le vent souffle depuis la direction indiquée vers la direction oposée.

3 Les rafales max. sont disponible 40 min après l'heure du relevé.

4 Pour les stations d'altitude (plus de 600m) le géopotentiel du niveau le plus proche de la pression obligatoire est indiqué.

5 Les stations disposant d'un diffuseur peuvent indiquer "trace". Cela signifie que des précipitations ont touchés le sol mais que la quantité est inférieure à 0.1 mm.

Récapitulatif de la journée
Température [°C] Vent [km/h] Ensoleillement4 [h] Precipitations totale5 [mm] Pression [Hpa]
Min1 Max.2 Moy.3 Max. Min Max.
-2.2 17.0 0 27.8 0 h 0 min 0 1012.2 1020.3

1 Température minimale relevée entre 18:00 UTC la veille et 18:00 UTC le jour donné.

2 Température maximale relevée entre 06:00 UTC le jour donné et 06:00 UTC le lendemain.

3 Vent moyen de la journée basé sur les relevés horaires.

4 Ensoleillement en heures relevé entre 06:00 UTC la veille et 06:00 UTC le jour donné.

5 Précipitations totales tombées entre 06:00 UTC la jour donné et 06:00 UTC le lendemain.

Graphiques horaires